createdAt,value
2019-05-12T00:02:00.923Z,22.37
2019-05-12T00:04:31.327Z,22.47
2019-05-12T00:07:01.783Z,22.57
2019-05-12T00:09:32.226Z,22.17
2019-05-12T00:12:02.815Z,23.53
2019-05-12T00:14:33.237Z,23.27
2019-05-12T00:17:03.685Z,22.87
2019-05-12T00:19:34.085Z,23.83
2019-05-12T00:22:04.568Z,23.37
2019-05-12T00:24:34.973Z,24.17
2019-05-12T00:27:12.987Z,22.97
2019-05-12T00:29:43.418Z,24.17
2019-05-12T00:32:13.881Z,24.93
2019-05-12T00:34:44.330Z,27.00
2019-05-12T00:37:14.790Z,26.43
2019-05-12T00:39:47.710Z,24.37
2019-05-12T00:42:18.357Z,25.47
2019-05-12T00:44:49.801Z,25.97
2019-05-12T00:47:21.252Z,25.83
2019-05-12T00:49:54.138Z,27.23
2019-05-12T00:52:28.195Z,25.83
2019-05-12T00:54:59.703Z,25.47
2019-05-12T00:57:31.461Z,26.57
2019-05-12T01:00:05.777Z,26.17
2019-05-12T01:02:38.971Z,26.83
2019-05-12T01:05:13.285Z,29.23
2019-05-12T01:07:48.194Z,28.50
2019-05-12T01:10:20.082Z,31.03
2019-05-12T01:12:51.840Z,32.40
2019-05-12T01:15:23.390Z,34.53
2019-05-12T01:17:58.570Z,35.83
2019-05-12T01:20:29.878Z,35.10
2019-05-12T01:23:11.365Z,38.40
2019-05-12T01:25:43.224Z,40.73
2019-05-12T01:28:15.187Z,36.50
2019-05-12T01:30:48.276Z,34.77
2019-05-12T01:33:22.595Z,37.93
2019-05-12T01:35:54.864Z,35.57
2019-05-12T01:38:28.771Z,37.77
2019-05-12T01:41:17.974Z,37.20
2019-05-12T01:44:05.772Z,34.73
2019-05-12T01:46:53.303Z,39.17
2019-05-12T01:49:41.547Z,35.00
2019-05-12T01:52:29.794Z,36.83
2019-05-12T01:55:18.597Z,36.80
2019-05-12T01:58:08.354Z,34.47
2019-05-12T02:00:59.004Z,36.30
2019-05-12T02:03:48.299Z,38.50
2019-05-12T02:06:30.298Z,35.60
2019-05-12T02:09:14.445Z,38.63
2019-05-12T02:11:58.394Z,36.13
2019-05-12T02:14:31.380Z,38.80
2019-05-12T02:17:02.930Z,35.43
2019-05-12T02:19:34.793Z,36.67
2019-05-12T02:22:09.723Z,35.67
2019-05-12T02:24:41.276Z,36.73
2019-05-12T02:27:13.238Z,34.00
2019-05-12T02:29:45.305Z,35.40
2019-05-12T02:32:17.274Z,33.27
2019-05-12T02:34:48.926Z,31.60
2019-05-12T02:37:21.092Z,31.17
2019-05-12T02:39:55.554Z,35.93
2019-05-12T02:42:26.247Z,35.53
2019-05-12T02:44:59.233Z,37.17
2019-05-12T02:47:34.422Z,37.40
2019-05-12T02:50:09.199Z,37.57
2019-05-12T02:52:44.333Z,38.10
2019-05-12T02:55:16.505Z,39.07
2019-05-12T02:57:50.717Z,36.13
2019-05-12T03:00:24.224Z,45.77
2019-05-12T03:02:59.666Z,45.40
2019-05-12T03:05:34.878Z,44.13
2019-05-12T03:08:05.751Z,38.50
2019-05-12T03:10:37.500Z,36.73
2019-05-12T03:13:09.255Z,38.43
2019-05-12T03:15:41.020Z,44.33
2019-05-12T03:18:14.650Z,40.57
2019-05-12T03:20:46.169Z,42.00
2019-05-12T03:23:19.088Z,39.93
2019-05-12T03:25:54.442Z,43.20
2019-05-12T03:28:26.153Z,41.60
2019-05-12T03:31:23.550Z,39.90
2019-05-12T03:33:59.872Z,38.00
2019-05-12T03:36:34.541Z,38.17
2019-05-12T03:39:04.235Z,39.47
2019-05-12T03:41:37.918Z,41.90
2019-05-12T03:44:09.981Z,41.73
2019-05-12T03:46:45.628Z,40.47
2019-05-12T03:49:17.078Z,40.40
2019-05-12T03:51:48.941Z,38.63
2019-05-12T03:54:24.348Z,36.93
2019-05-12T03:56:58.804Z,39.10
2019-05-12T03:59:30.361Z,36.73
2019-05-12T04:02:04.693Z,37.37
2019-05-12T04:04:36.950Z,36.73
2019-05-12T04:07:08.707Z,41.03
2019-05-12T04:09:40.177Z,42.83
2019-05-12T04:12:14.840Z,42.07
2019-05-12T04:14:45.723Z,43.47
2019-05-12T04:17:28.640Z,42.60
2019-05-12T04:20:45.272Z,41.37
2019-05-12T04:23:27.556Z,42.13
2019-05-12T04:26:10.968Z,42.37
2019-05-12T04:28:39.980Z,43.67
2019-05-12T04:31:15.837Z,41.70
2019-05-12T04:33:59.616Z,40.43
2019-05-12T04:37:17.517Z,36.00
2019-05-12T04:40:14.919Z,36.00
2019-05-12T04:42:44.849Z,35.47
2019-05-12T04:45:16.025Z,35.40
2019-05-12T04:47:48.109Z,34.73
2019-05-12T04:50:38.087Z,32.93
2019-05-12T04:53:09.851Z,31.10
2019-05-12T04:55:44.611Z,29.03
2019-05-12T04:58:17.152Z,28.43
2019-05-12T05:00:48.802Z,25.97
2019-05-12T05:03:20.767Z,27.33
2019-05-12T05:05:54.951Z,27.30
2019-05-12T05:08:26.405Z,25.17
2019-05-12T05:10:58.189Z,26.67
2019-05-12T05:13:48.174Z,27.57
2019-05-12T05:18:59.165Z,25.80
2019-05-12T05:21:30.923Z,26.20
2019-05-12T05:24:04.221Z,27.07
2019-05-12T05:26:38.253Z,25.83
2019-05-12T05:29:13.374Z,24.63
2019-05-12T05:31:44.815Z,24.47
2019-05-12T05:37:20.283Z,20.52
2019-05-12T05:39:49.535Z,21.75
2019-05-12T05:42:22.187Z,21.30
2019-05-12T05:45:10.012Z,21.70
2019-05-12T05:47:41.135Z,18.92
2019-05-12T05:50:24.912Z,18.20
2019-05-12T05:52:58.170Z,17.17
2019-05-12T05:55:35.958Z,17.20
2019-05-12T05:58:10.707Z,17.52
2019-05-12T06:00:43.624Z,17.57
2019-05-12T06:03:23.313Z,18.65
2019-05-12T06:05:53.511Z,16.23
2019-05-12T06:08:27.866Z,15.75
2019-05-12T06:10:59.219Z,18.07
2019-05-12T06:13:32.381Z,17.80
2019-05-12T06:16:05.191Z,15.98
2019-05-12T06:18:37.255Z,16.37
2019-05-12T06:21:09.015Z,17.15
2019-05-12T06:23:43.488Z,16.95
2019-05-12T06:26:20.955Z,16.62
2019-05-12T06:28:50.639Z,16.45
2019-05-12T06:31:25.209Z,16.67
2019-05-12T06:34:13.700Z,16.65
2019-05-12T06:36:39.942Z,15.75
2019-05-12T06:39:23.434Z,14.70
2019-05-12T06:42:02.010Z,14.70
2019-05-12T06:44:43.709Z,14.98
2019-05-12T06:47:21.073Z,15.13
2019-05-12T06:49:57.141Z,14.15
2019-05-12T06:52:29.711Z,13.28
2019-05-12T06:55:03.774Z,11.50
2019-05-12T06:57:40.142Z,12.00
2019-05-12T07:00:22.324Z,11.18
2019-05-12T07:03:04.245Z,10.72
2019-05-12T07:09:03.452Z,10.72
2019-05-12T07:18:23.250Z,10.18
2019-05-12T07:27:16.235Z,9.80
2019-05-12T07:27:36.789Z,10.58
2019-05-12T08:00:25.180Z,11.65
2019-05-12T08:15:53.273Z,10.30
2019-05-12T08:18:37.045Z,9.25
2019-05-12T08:21:49.409Z,9.15
2019-05-12T08:27:45.271Z,10.53
2019-05-12T08:30:57.012Z,11.03
2019-05-12T08:33:34.540Z,9.90
2019-05-12T08:36:52.903Z,9.73
2019-05-12T08:42:26.373Z,10.63
2019-05-12T08:44:58.745Z,9.73
2019-05-12T08:47:38.983Z,10.72
2019-05-12T09:03:06.039Z,10.65
2019-05-12T09:09:16.138Z,10.43
2019-05-12T09:11:47.180Z,9.40
2019-05-12T09:14:17.631Z,10.93
2019-05-12T09:16:48.064Z,10.05
2019-05-12T09:19:23.935Z,10.40
2019-05-12T09:21:50.637Z,10.13
2019-05-12T09:24:25.326Z,10.18
2019-05-12T09:26:53.838Z,9.43
2019-05-12T09:29:25.256Z,10.10
2019-05-12T09:31:59.354Z,10.90
2019-05-12T09:34:29.331Z,10.75
2019-05-12T09:37:01.129Z,9.70
2019-05-12T09:51:46.051Z,10.03
2019-05-12T09:54:16.641Z,9.70
2019-05-12T09:56:49.881Z,9.90
2019-05-12T09:59:23.017Z,9.33
2019-05-12T10:01:51.386Z,9.35
2019-05-12T10:04:22.646Z,9.25
2019-05-12T10:06:53.547Z,8.95
2019-05-12T10:09:24.470Z,8.60
2019-05-12T10:12:00.547Z,7.90
2019-05-12T10:14:27.224Z,7.30
2019-05-12T10:16:57.696Z,7.35
2019-05-12T10:19:28.124Z,6.87
2019-05-12T10:21:59.669Z,7.37
2019-05-12T10:24:34.425Z,6.30
2019-05-12T10:27:03.791Z,6.28
2019-05-12T10:29:34.376Z,6.05
2019-05-12T10:32:04.850Z,6.00
2019-05-12T10:34:40.131Z,6.08
2019-05-12T10:37:07.465Z,6.17
2019-05-12T10:39:37.892Z,6.10
2019-05-12T10:42:08.352Z,6.35
2019-05-12T10:44:40.782Z,6.00
2019-05-12T10:47:10.897Z,6.40
2019-05-12T10:49:41.291Z,6.40
2019-05-12T10:52:13.804Z,5.42
2019-05-12T10:54:43.879Z,5.55
2019-05-12T10:57:14.335Z,5.30
2019-05-12T10:59:48.458Z,5.20
2019-05-12T11:02:20.389Z,5.08
2019-05-12T11:04:49.372Z,5.62
2019-05-12T11:07:22.865Z,5.80
2019-05-12T11:09:54.214Z,5.90
2019-05-12T11:12:28.919Z,6.58
2019-05-12T11:14:56.248Z,7.95
2019-05-12T11:17:29.981Z,7.05
2019-05-12T11:20:00.592Z,6.60
2019-05-12T11:22:33.268Z,6.92
2019-05-12T11:25:04.355Z,7.35
2019-05-12T11:27:34.893Z,8.35
2019-05-12T11:30:06.922Z,7.97
2019-05-12T11:32:38.019Z,7.45
2019-05-12T11:35:08.900Z,7.33
2019-05-12T11:37:39.358Z,7.97
2019-05-12T11:40:09.857Z,7.78
2019-05-12T11:42:40.321Z,8.20
2019-05-12T11:45:10.927Z,7.20
2019-05-12T11:47:41.360Z,7.80
2019-05-12T11:50:13.244Z,6.70
2019-05-12T11:52:45.942Z,7.00
2019-05-12T11:55:15.910Z,6.62
2019-05-12T11:57:46.388Z,6.97
2019-05-12T12:00:18.825Z,7.00
2019-05-12T12:02:49.338Z,7.33
2019-05-12T12:05:20.662Z,8.13
2019-05-12T12:07:52.914Z,7.50
2019-05-12T12:10:23.482Z,6.65
2019-05-12T12:12:54.060Z,6.17
2019-05-12T12:15:26.438Z,6.53
2019-05-12T12:17:56.729Z,6.72
2019-05-12T12:20:27.210Z,7.97
2019-05-12T12:23:00.169Z,8.25
2019-05-12T12:25:33.876Z,8.88
2019-05-12T12:28:04.358Z,7.60
2019-05-12T12:30:35.066Z,7.40
2019-05-12T12:33:05.573Z,7.50
2019-05-12T12:35:35.978Z,7.00
2019-05-12T12:38:06.503Z,7.72
2019-05-12T12:40:36.916Z,8.65
2019-05-12T12:43:08.248Z,7.37
2019-05-12T12:45:40.781Z,7.12
2019-05-12T12:48:13.567Z,6.83
2019-05-12T12:50:44.550Z,7.28
2019-05-12T12:53:15.092Z,7.08
2019-05-12T12:55:46.987Z,7.20
2019-05-12T12:58:21.133Z,7.30
2019-05-12T13:00:54.515Z,7.33
2019-05-12T13:03:27.708Z,7.85
2019-05-12T13:05:54.531Z,7.80
2019-05-12T13:08:25.005Z,9.63
2019-05-12T13:10:55.414Z,9.63
2019-05-12T13:13:25.961Z,10.53
2019-05-12T13:15:56.393Z,9.98
2019-05-12T13:18:33.024Z,11.68
2019-05-12T13:20:59.001Z,11.28
2019-05-12T13:23:37.986Z,13.25
2019-05-12T13:26:04.126Z,14.47
2019-05-12T13:28:34.237Z,13.10
2019-05-12T13:31:09.020Z,13.68
2019-05-12T13:33:36.977Z,13.00
2019-05-12T13:36:07.392Z,10.72
2019-05-12T13:38:40.384Z,8.90
2019-05-12T13:41:17.949Z,7.78
2019-05-12T13:43:42.136Z,7.78
2019-05-12T13:46:12.541Z,7.85
2019-05-12T13:48:43.401Z,7.72
2019-05-12T13:51:15.786Z,6.97
2019-05-12T13:53:50.122Z,6.22
2019-05-12T13:56:19.227Z,6.90
2019-05-12T13:58:50.290Z,7.58
2019-05-12T14:01:21.043Z,7.40
2019-05-12T14:03:53.604Z,8.03
2019-05-12T14:06:31.861Z,8.88
2019-05-12T14:08:56.781Z,9.63
2019-05-12T14:11:27.230Z,8.63
2019-05-12T14:13:57.761Z,8.93
2019-05-12T14:16:28.186Z,9.18
2019-05-12T14:19:00.430Z,10.15
2019-05-12T14:21:33.151Z,8.90
2019-05-12T14:24:03.132Z,9.73
2019-05-12T14:26:33.551Z,9.05
2019-05-12T14:29:04.086Z,10.55
2019-05-12T14:31:36.269Z,10.45
2019-05-12T14:34:10.543Z,11.35
2019-05-12T14:36:38.847Z,11.03
2019-05-12T14:39:10.397Z,10.88
2019-05-12T14:41:44.394Z,10.65
2019-05-12T14:44:13.739Z,10.53
2019-05-12T14:46:49.251Z,10.63
2019-05-12T14:49:20.413Z,9.40
2019-05-12T14:51:48.607Z,10.95
2019-05-12T14:54:19.082Z,10.53
2019-05-12T14:56:55.443Z,10.63
2019-05-12T14:59:23.767Z,9.80
2019-05-12T15:01:59.137Z,9.98
2019-05-12T15:04:29.869Z,9.00
2019-05-12T15:06:59.750Z,8.38
2019-05-12T15:09:31.200Z,8.68
2019-05-12T15:12:03.607Z,8.08
2019-05-12T15:14:38.004Z,8.85
2019-05-12T15:17:05.909Z,7.53
2019-05-12T15:19:36.288Z,8.65
2019-05-12T15:22:10.281Z,8.08
2019-05-12T15:24:38.866Z,7.80
2019-05-12T15:27:09.256Z,7.45
2019-05-12T15:29:39.690Z,7.80
2019-05-12T15:32:10.175Z,8.93
2019-05-12T15:34:40.629Z,10.08
2019-05-12T15:37:11.035Z,18.75
2019-05-12T15:39:43.899Z,12.70
2019-05-12T15:42:14.234Z,11.85
2019-05-12T15:44:47.317Z,10.58
2019-05-12T15:47:16.935Z,10.65
2019-05-12T15:49:47.382Z,11.45
2019-05-12T15:52:17.788Z,9.48
2019-05-12T15:54:51.314Z,10.93
2019-05-12T15:57:20.343Z,11.63
2019-05-12T15:59:50.759Z,10.53
2019-05-12T16:02:23.374Z,11.25
2019-05-12T16:04:55.018Z,10.90
2019-05-12T16:07:29.705Z,12.75
2019-05-12T16:09:58.501Z,11.93
2019-05-12T16:12:28.925Z,11.73
2019-05-12T16:14:59.477Z,13.75
2019-05-12T16:17:30.013Z,12.05
2019-05-12T16:20:00.484Z,11.33
2019-05-12T16:22:37.293Z,10.60
2019-05-12T16:25:07.448Z,10.80
2019-05-12T16:27:37.854Z,12.00
2019-05-12T16:30:08.645Z,10.80
2019-05-12T16:32:43.062Z,11.50
2019-05-12T16:35:11.516Z,11.10
2019-05-12T16:37:44.174Z,12.70
2019-05-12T16:40:14.757Z,11.93
2019-05-12T16:42:53.537Z,12.23
2019-05-12T16:45:19.979Z,13.48
2019-05-12T16:47:49.517Z,13.32
2019-05-12T16:50:27.653Z,13.20
2019-05-12T16:52:53.552Z,13.13
2019-05-12T16:55:24.266Z,13.95
2019-05-12T16:57:56.149Z,13.03
2019-05-12T17:00:26.795Z,14.47
2019-05-12T17:02:58.039Z,13.95
2019-05-12T17:05:28.655Z,13.95
2019-05-12T17:07:59.933Z,14.55
2019-05-12T17:10:30.421Z,15.08
2019-05-12T17:13:00.843Z,14.43
2019-05-12T17:15:33.700Z,14.80
2019-05-12T17:18:04.326Z,15.38
2019-05-12T17:20:35.046Z,14.70
2019-05-12T17:23:05.473Z,15.55
2019-05-12T17:25:35.935Z,21.25
2019-05-12T17:28:06.369Z,15.65
2019-05-12T17:30:36.849Z,16.45
2019-05-12T17:33:07.276Z,16.67
2019-05-12T17:35:37.763Z,16.60
2019-05-12T17:38:11.710Z,17.32
2019-05-12T17:40:40.338Z,17.90
2019-05-12T17:43:12.030Z,17.85
2019-05-12T17:45:44.292Z,19.50
2019-05-12T17:48:14.707Z,19.80
2019-05-12T17:50:48.561Z,20.52
2019-05-12T17:53:17.843Z,19.85
2019-05-12T17:55:53.174Z,21.33
2019-05-12T17:58:20.535Z,20.15
2019-05-12T18:00:52.003Z,22.93
2019-05-12T18:03:25.492Z,22.67
2019-05-12T18:05:54.696Z,23.75
2019-05-12T18:08:32.448Z,23.02
2019-05-12T18:10:58.161Z,23.32
2019-05-12T18:13:28.562Z,23.62
2019-05-12T18:15:59.137Z,23.62
2019-05-12T18:18:32.735Z,24.25
2019-05-12T18:21:03.573Z,25.20
2019-05-12T18:23:34.525Z,24.52
2019-05-12T18:26:11.441Z,24.70
2019-05-12T18:28:37.119Z,27.15
2019-05-12T18:31:07.597Z,27.87
2019-05-12T18:33:50.879Z,27.52
2019-05-12T18:36:10.203Z,26.60
2019-05-12T18:38:40.634Z,27.05
2019-05-12T18:41:11.114Z,26.75
2019-05-12T18:43:43.493Z,28.57
2019-05-12T18:46:14.174Z,28.47
2019-05-12T18:48:44.669Z,30.70
2019-05-12T18:51:17.372Z,32.28
2019-05-12T18:53:47.251Z,31.37
2019-05-12T18:56:21.830Z,30.77
2019-05-12T18:58:49.872Z,29.25
2019-05-12T19:01:20.342Z,28.45
2019-05-12T19:03:51.307Z,31.37
2019-05-12T19:06:23.412Z,30.72
2019-05-12T19:08:54.831Z,31.52
2019-05-12T19:11:31.726Z,32.25
2019-05-12T19:13:57.610Z,36.77
2019-05-12T19:16:28.236Z,38.05
2019-05-12T19:18:58.673Z,38.73
2019-05-12T19:21:29.125Z,40.80
2019-05-12T19:23:59.569Z,39.40
2019-05-12T19:26:32.891Z,40.98
2019-05-12T19:29:04.019Z,39.58
2019-05-12T19:31:36.656Z,39.83
2019-05-12T19:34:18.031Z,39.13
2019-05-12T19:36:44.852Z,40.92
2019-05-12T19:39:10.885Z,41.33
2019-05-12T19:41:43.461Z,41.33
2019-05-12T19:44:13.650Z,42.93
2019-05-12T19:46:45.925Z,42.55
2019-05-12T19:49:20.205Z,44.73
2019-05-12T19:51:48.376Z,45.28
2019-05-12T19:54:19.335Z,46.65
2019-05-12T19:56:50.951Z,45.63
2019-05-12T19:59:23.501Z,45.48
2019-05-12T20:01:53.745Z,48.80
2019-05-12T20:04:33.517Z,47.37
2019-05-12T20:06:56.387Z,46.10
2019-05-12T20:09:27.655Z,49.00
2019-05-12T20:12:01.255Z,48.67
2019-05-12T20:14:30.283Z,49.55
2019-05-12T20:17:00.823Z,49.00
2019-05-12T20:19:31.238Z,47.67
2019-05-12T20:22:03.505Z,46.30
2019-05-12T20:24:33.736Z,49.83
2019-05-12T20:27:04.218Z,47.78
2019-05-12T20:29:35.321Z,49.15
2019-05-12T20:32:05.883Z,47.20
2019-05-12T20:34:48.402Z,46.30
2019-05-12T20:37:13.444Z,47.93
2019-05-12T20:39:40.583Z,47.98
2019-05-12T20:42:11.072Z,47.73
2019-05-12T20:44:43.594Z,47.65
2019-05-12T20:47:14.054Z,45.60
2019-05-12T20:49:50.932Z,45.23
2019-05-12T20:52:16.606Z,45.33
2019-05-12T20:54:49.113Z,44.15
2019-05-12T20:57:19.143Z,46.18
2019-05-12T20:59:49.591Z,43.23
2019-05-12T21:02:20.056Z,42.93
2019-05-12T21:05:00.611Z,42.00
2019-05-12T21:07:26.812Z,38.55
2019-05-12T21:09:55.635Z,40.50
2019-05-12T21:12:26.119Z,37.53
2019-05-12T21:15:12.320Z,37.45
2019-05-12T21:17:39.394Z,35.15
2019-05-12T21:20:00.919Z,34.10
2019-05-12T21:22:31.384Z,35.75
2019-05-12T21:25:03.974Z,40.30
2019-05-12T21:27:33.976Z,37.83
2019-05-12T21:30:10.357Z,38.45
2019-05-12T21:32:38.232Z,36.15
2019-05-12T21:35:19.375Z,37.15
2019-05-12T21:37:45.572Z,36.35
2019-05-12T21:40:14.887Z,36.77
2019-05-12T21:42:45.559Z,36.63
2019-05-12T21:45:20.170Z,37.25
2019-05-12T21:47:48.226Z,35.20
2019-05-12T21:50:24.276Z,35.25
2019-05-12T21:52:56.405Z,37.20
2019-05-12T21:55:26.050Z,36.23
2019-05-12T21:57:54.928Z,36.28
2019-05-12T22:00:34.706Z,36.70
2019-05-12T22:03:08.097Z,38.02
2019-05-12T22:05:50.355Z,35.63
2019-05-12T22:08:17.661Z,35.55
2019-05-12T22:10:44.766Z,36.30
2019-05-12T22:13:18.175Z,37.98
2019-05-12T22:15:51.546Z,37.23
2019-05-12T22:18:19.654Z,36.13
2019-05-12T22:20:54.418Z,36.63
2019-05-12T22:23:24.587Z,35.45
2019-05-12T22:25:58.056Z,36.50
2019-05-12T22:28:26.657Z,37.50
2019-05-12T22:30:57.053Z,35.40
2019-05-12T22:33:27.512Z,36.63
2019-05-12T22:36:04.844Z,35.10
2019-05-12T22:38:30.089Z,36.03
2019-05-12T22:41:00.524Z,36.00
2019-05-12T22:43:31.506Z,36.47
2019-05-12T22:46:04.540Z,36.80
2019-05-12T22:48:37.339Z,37.23
2019-05-12T22:51:17.491Z,36.57
2019-05-12T22:53:39.523Z,35.97
2019-05-12T22:56:17.818Z,37.50
2019-05-12T22:58:44.169Z,36.07
2019-05-12T23:01:14.590Z,34.03
2019-05-12T23:03:51.240Z,34.83
2019-05-12T23:06:23.527Z,35.00
2019-05-12T23:08:49.567Z,36.93
2019-05-12T23:11:23.795Z,34.60
2019-05-12T23:13:53.827Z,33.97
2019-05-12T23:16:27.664Z,33.90
2019-05-12T23:19:01.327Z,34.57
2019-05-12T23:21:28.777Z,34.13
2019-05-12T23:24:00.761Z,37.30
2019-05-12T23:26:35.650Z,34.10
2019-05-12T23:29:04.261Z,32.67
2019-05-12T23:31:34.821Z,32.83
2019-05-12T23:34:06.412Z,31.30
2019-05-12T23:36:39.182Z,32.07
2019-05-12T23:39:09.789Z,31.97
2019-05-12T23:41:40.257Z,32.10
2019-05-12T23:44:10.701Z,32.13
2019-05-12T23:46:43.568Z,33.00
2019-05-12T23:49:14.388Z,32.10
2019-05-12T23:51:44.871Z,32.83
2019-05-12T23:54:15.357Z,32.50
2019-05-12T23:56:45.788Z,32.23
2019-05-12T23:59:16.227Z,32.00
